Time,TemperatureF,DewpointF,PressureIn,WindDirection,WindDirectionDegrees,WindSpeedMPH,WindSpeedGustMPH,Humidity,HourlyPrecipIn,Conditions,Clouds,dailyrainin,SoftwareType,DateUTC
2013-02-09 00:00:00,59.0,57.0,30.09,NW,320,0.0,0.0,93,0.00,,,0.00,meteohub,2013-02-09 05:00:00,
2013-02-09 00:01:00,59.0,56.7,30.10,NW,320,0.0,0.0,92,0.00,,,0.00,meteohub,2013-02-09 05:01:00,
2013-02-09 00:02:00,59.0,56.7,30.10,NW,320,0.0,0.0,92,0.00,,,0.00,meteohub,2013-02-09 05:02:00,
2013-02-09 00:07:00,58.8,56.8,30.10,NW,320,0.0,0.0,93,0.00,,,0.00,meteohub,2013-02-09 05:07:00,
2013-02-09 00:12:00,58.6,56.7,30.10,NW,320,0.0,0.0,93,0.00,,,0.00,meteohub,2013-02-09 05:12:00,
2013-02-09 00:18:00,58.6,56.7,30.10,NW,320,0.0,2.0,93,0.00,,,0.00,meteohub,2013-02-09 05:18:00,
2013-02-09 00:23:00,58.6,56.7,30.09,NW,320,0.0,2.0,93,0.00,,,0.00,meteohub,2013-02-09 05:23:00,
2013-02-09 00:28:00,58.6,56.7,30.09,NW,320,0.0,1.0,93,0.00,,,0.00,meteohub,2013-02-09 05:28:00,
2013-02-09 00:33:00,58.5,56.5,30.09,NW,320,0.0,1.0,93,0.00,,,0.00,meteohub,2013-02-09 05:33:00,
2013-02-09 00:38:00,58.5,56.5,30.09,NW,320,0.0,0.0,93,0.00,,,0.00,meteohub,2013-02-09 05:38:00,
2013-02-09 00:43:00,58.3,56.3,30.09,NW,320,0.0,0.0,93,0.00,,,0.00,meteohub,2013-02-09 05:43:00,
2013-02-09 00:48:00,58.3,56.3,30.09,NW,320,0.0,0.0,93,0.00,,,0.00,meteohub,2013-02-09 05:48:00,
2013-02-09 00:53:00,58.3,56.5,30.09,NW,320,0.0,0.0,94,0.00,,,0.00,meteohub,2013-02-09 05:53:00,
2013-02-09 00:58:00,57.9,55.9,30.09,NW,320,0.0,0.0,93,0.00,,,0.00,meteohub,2013-02-09 05:58:00,
2013-02-09 01:03:00,57.7,55.8,30.09,NW,320,0.0,0.0,93,0.00,,,0.00,meteohub,2013-02-09 06:03:00,
2013-02-09 01:09:00,57.6,55.6,30.09,NW,320,0.0,0.0,93,0.00,,,0.00,meteohub,2013-02-09 06:09:00,
2013-02-09 01:14:00,57.4,55.6,30.09,NW,320,0.0,0.0,94,0.00,,,0.00,meteohub,2013-02-09 06:14:00,
2013-02-09 01:19:00,57.6,55.8,30.09,NW,320,0.0,0.0,94,0.00,,,0.00,meteohub,2013-02-09 06:19:00,
2013-02-09 01:24:00,57.6,55.8,30.09,NW,320,0.0,0.0,94,0.00,,,0.00,meteohub,2013-02-09 06:24:00,
2013-02-09 01:29:00,57.4,55.6,30.10,NW,320,0.0,0.0,94,0.00,,,0.00,meteohub,2013-02-09 06:29:00,
2013-02-09 01:34:00,57.4,55.6,30.10,NW,320,0.0,0.0,94,0.00,,,0.00,meteohub,2013-02-09 06:34:00,
2013-02-09 01:39:00,57.4,55.6,30.10,NW,320,0.0,0.0,94,0.00,,,0.00,meteohub,2013-02-09 06:39:00,
2013-02-09 01:44:00,57.2,55.4,30.10,NW,320,1.0,0.0,94,0.00,,,0.00,meteohub,2013-02-09 06:44:00,
2013-02-09 01:49:00,57.4,55.6,30.10,NW,320,0.0,1.0,94,0.00,,,0.00,meteohub,2013-02-09 06:49:00,
2013-02-09 01:54:00,57.2,55.4,30.10,NW,320,0.0,1.0,94,0.00,,,0.00,meteohub,2013-02-09 06:54:00,
2013-02-09 01:59:00,57.2,55.4,30.09,NW,320,0.0,1.0,94,0.00,,,0.00,meteohub,2013-02-09 06:59:00,
2013-02-09 02:05:00,57.2,55.8,30.09,NW,320,0.0,1.0,95,0.00,,,0.00,meteohub,2013-02-09 07:05:00,
2013-02-09 02:10:00,57.4,55.9,30.09,NW,320,0.0,1.0,95,0.00,,,0.00,meteohub,2013-02-09 07:10:00,
2013-02-09 02:15:00,57.2,55.4,30.09,NW,320,0.0,0.0,94,0.00,,,0.00,meteohub,2013-02-09 07:15:00,
2013-02-09 02:20:00,57.0,55.6,30.09,NW,320,0.0,0.0,95,0.00,,,0.00,meteohub,2013-02-09 07:20:00,
2013-02-09 02:25:00,56.8,55.4,30.09,NW,320,0.0,0.0,95,0.00,,,0.00,meteohub,2013-02-09 07:25:00,
2013-02-09 02:30:00,56.8,55.2,30.09,NW,320,0.0,0.0,94,0.00,,,0.00,meteohub,2013-02-09 07:30:00,
2013-02-09 02:36:00,56.8,55.4,30.09,NW,320,0.0,0.0,95,0.00,,,0.00,meteohub,2013-02-09 07:36:00,
2013-02-09 02:41:00,56.8,55.4,30.09,NW,320,0.0,1.0,95,0.00,,,0.00,meteohub,2013-02-09 07:41:00,
2013-02-09 02:46:00,57.0,55.6,30.09,NW,320,0.0,2.0,95,0.00,,,0.00,meteohub,2013-02-09 07:46:00,
2013-02-09 02:51:00,57.0,55.6,30.09,NW,320,0.0,2.0,95,0.00,,,0.00,meteohub,2013-02-09 07:51:00,
2013-02-09 02:56:00,57.0,55.6,30.09,NW,320,0.0,2.0,95,0.00,,,0.00,meteohub,2013-02-09 07:56:00,
2013-02-09 03:01:00,57.0,55.6,30.09,NW,320,0.0,2.0,95,0.00,,,0.00,meteohub,2013-02-09 08:01:00,
2013-02-09 03:06:00,57.0,55.6,30.09,NW,320,0.0,2.0,95,0.00,,,0.00,meteohub,2013-02-09 08:06:00,
2013-02-09 03:11:00,57.0,55.6,30.09,NW,320,0.0,3.0,95,0.00,,,0.00,meteohub,2013-02-09 08:11:00,
2013-02-09 03:16:00,57.0,55.6,30.09,NW,320,0.0,5.0,95,0.00,,,0.00,meteohub,2013-02-09 08:16:00,
2013-02-09 03:22:00,56.8,55.4,30.09,NW,320,0.0,5.0,95,0.00,,,0.00,meteohub,2013-02-09 08:22:00,
2013-02-09 03:27:00,56.8,55.4,30.09,NW,320,0.0,3.0,95,0.00,,,0.00,meteohub,2013-02-09 08:27:00,
2013-02-09 03:32:00,56.8,55.4,30.09,NW,320,1.0,4.0,95,0.00,,,0.00,meteohub,2013-02-09 08:32:00,
2013-02-09 03:37:00,56.8,55.4,30.09,NW,320,0.0,4.0,95,0.00,,,0.00,meteohub,2013-02-09 08:37:00,
2013-02-09 03:42:00,56.7,55.2,30.10,NW,320,0.0,5.0,95,0.00,,,0.00,meteohub,2013-02-09 08:42:00,
2013-02-09 03:47:00,56.7,55.2,30.10,NW,320,0.0,5.0,95,0.00,,,0.00,meteohub,2013-02-09 08:47:00,
2013-02-09 03:52:00,56.7,55.2,30.10,NW,320,2.0,3.0,95,0.00,,,0.00,meteohub,2013-02-09 08:52:00,
2013-02-09 03:57:00,56.7,55.2,30.10,NW,320,0.0,3.0,95,0.00,,,0.00,meteohub,2013-02-09 08:57:00,
2013-02-09 04:02:00,56.7,55.2,30.10,NW,320,2.0,3.0,95,0.00,,,0.00,meteohub,2013-02-09 09:02:00,
2013-02-09 04:07:00,56.7,55.2,30.10,NW,322,0.0,4.0,95,0.00,,,0.00,meteohub,2013-02-09 09:07:00,
2013-02-09 04:12:00,56.7,55.2,30.11,NW,322,0.0,6.0,95,0.00,,,0.00,meteohub,2013-02-09 09:12:00,
2013-02-09 04:17:00,56.8,55.4,30.11,NNW,333,4.0,6.0,95,0.00,,,0.00,meteohub,2013-02-09 09:17:00,
2013-02-09 04:22:00,56.8,55.2,30.11,NNW,334,5.0,6.0,94,0.00,,,0.00,meteohub,2013-02-09 09:22:00,
2013-02-09 04:27:00,57.0,55.2,30.11,NNE,19,0.0,7.0,94,0.00,,,0.00,meteohub,2013-02-09 09:27:00,
2013-02-09 04:32:00,57.0,55.0,30.11,NNE,19,0.0,7.0,93,0.00,,,0.00,meteohub,2013-02-09 09:32:00,
2013-02-09 04:37:00,57.0,55.0,30.11,North,0,1.0,7.0,93,0.00,,,0.00,meteohub,2013-02-09 09:37:00,
2013-02-09 04:43:00,57.0,55.0,30.12,North,0,1.0,8.0,93,0.00,,,0.00,meteohub,2013-02-09 09:43:00,
2013-02-09 04:48:00,56.8,54.5,30.12,North,5,2.0,8.0,92,0.00,,,0.00,meteohub,2013-02-09 09:48:00,
2013-02-09 04:53:00,56.8,54.5,30.12,NNE,30,0.0,6.0,92,0.00,,,0.00,meteohub,2013-02-09 09:53:00,
2013-02-09 04:59:00,56.8,54.5,30.12,NNE,29,1.0,7.0,92,0.00,,,0.00,meteohub,2013-02-09 09:59:00,
2013-02-09 05:04:00,56.7,54.3,30.12,NNE,28,0.0,7.0,92,0.00,,,0.00,meteohub,2013-02-09 10:04:00,
2013-02-09 05:09:00,56.7,54.1,30.12,NNE,14,0.0,6.0,91,0.00,,,0.00,meteohub,2013-02-09 10:09:00,
2013-02-09 05:14:00,56.7,54.1,30.13,NNE,14,4.0,6.0,91,0.00,,,0.00,meteohub,2013-02-09 10:14:00,
2013-02-09 05:19:00,56.7,54.1,30.13,NNE,14,1.0,6.0,91,0.00,,,0.00,meteohub,2013-02-09 10:19:00,
2013-02-09 05:25:00,56.5,54.0,30.13,NNE,12,0.0,6.0,91,0.00,,,0.00,meteohub,2013-02-09 10:25:00,
2013-02-09 05:30:00,56.5,54.0,30.14,North,11,0.0,7.0,91,0.00,,,0.00,meteohub,2013-02-09 10:30:00,
2013-02-09 05:35:00,56.3,53.8,30.14,NNE,13,2.0,7.0,91,0.00,,,0.00,meteohub,2013-02-09 10:35:00,
2013-02-09 05:41:00,56.1,53.6,30.14,NNE,21,0.0,7.0,91,0.00,,,0.00,meteohub,2013-02-09 10:41:00,
2013-02-09 05:46:00,56.1,53.6,30.14,NNE,21,0.0,7.0,91,0.00,,,0.00,meteohub,2013-02-09 10:46:00,
2013-02-09 05:51:00,55.9,53.4,30.14,NNE,21,1.0,6.0,91,0.00,,,0.00,meteohub,2013-02-09 10:51:00,
2013-02-09 05:57:00,55.9,53.4,30.14,NNE,26,1.0,6.0,91,0.00,,,0.00,meteohub,2013-02-09 10:57:00,
2013-02-09 06:02:00,55.8,53.2,30.14,NNE,22,1.0,6.0,91,0.00,,,0.00,meteohub,2013-02-09 11:02:00,
2013-02-09 06:07:00,55.8,53.2,30.14,NNE,17,2.0,6.0,91,0.00,,,0.00,meteohub,2013-02-09 11:07:00,
2013-02-09 06:12:00,55.6,53.1,30.14,NNE,17,1.0,7.0,91,0.00,,,0.00,meteohub,2013-02-09 11:12:00,
2013-02-09 06:17:00,55.6,53.1,30.14,NNE,17,0.0,7.0,91,0.00,,,0.00,meteohub,2013-02-09 11:17:00,
2013-02-09 06:22:00,55.6,53.1,30.14,North,355,1.0,6.0,91,0.00,,,0.00,meteohub,2013-02-09 11:22:00,
2013-02-09 06:27:00,55.4,52.9,30.14,North,355,2.0,7.0,91,0.00,,,0.00,meteohub,2013-02-09 11:27:00,
2013-02-09 06:32:00,55.4,52.9,30.15,North,355,0.0,7.0,91,0.00,,,0.00,meteohub,2013-02-09 11:32:00,
2013-02-09 06:37:00,55.2,52.7,30.15,NNE,24,2.0,7.0,91,0.00,,,0.00,meteohub,2013-02-09 11:37:00,
2013-02-09 06:42:00,55.2,52.7,30.15,NNE,27,1.0,9.0,91,0.00,,,0.00,meteohub,2013-02-09 11:42:00,
2013-02-09 06:47:00,55.2,52.7,30.15,NNE,26,0.0,9.0,91,0.00,,,0.00,meteohub,2013-02-09 11:47:00,
2013-02-09 06:52:00,55.0,52.5,30.15,NNE,25,1.0,9.0,91,0.00,,,0.00,meteohub,2013-02-09 11:52:00,
2013-02-09 06:57:00,55.0,52.5,30.16,NNE,27,3.0,6.0,91,0.00,,,0.00,meteohub,2013-02-09 11:57:00,
2013-02-09 07:02:00,55.0,52.5,30.16,NNE,30,4.0,7.0,91,0.00,,,0.00,meteohub,2013-02-09 12:02:00,
2013-02-09 07:07:00,55.0,52.5,30.16,NNE,24,5.0,8.0,91,0.00,,,0.00,meteohub,2013-02-09 12:07:00,
2013-02-09 07:12:00,54.9,52.3,30.16,NNE,24,0.0,8.0,91,0.00,,,0.00,meteohub,2013-02-09 12:12:00,
2013-02-09 07:17:00,54.9,52.3,30.17,NNE,21,0.0,6.0,91,0.00,,,0.00,meteohub,2013-02-09 12:17:00,
2013-02-09 07:22:00,54.9,52.3,30.17,NNE,19,0.0,6.0,91,0.00,,,0.00,meteohub,2013-02-09 12:22:00,
2013-02-09 07:28:00,54.9,52.3,30.17,NNE,19,0.0,6.0,91,0.00,,,0.00,meteohub,2013-02-09 12:28:00,
2013-02-09 07:33:00,54.9,52.3,30.17,NNE,19,4.0,6.0,91,0.00,,,0.00,meteohub,2013-02-09 12:33:00,
2013-02-09 07:38:00,55.0,52.5,30.17,NNE,19,3.0,7.0,91,0.00,,,0.00,meteohub,2013-02-09 12:38:00,
2013-02-09 07:43:00,55.2,52.7,30.18,NNE,22,1.0,8.0,91,0.00,,,0.00,meteohub,2013-02-09 12:43:00,
2013-02-09 07:48:00,55.4,52.9,30.17,NE,42,2.0,8.0,91,0.00,,,0.00,meteohub,2013-02-09 12:48:00,
2013-02-09 07:53:00,55.6,52.7,30.17,NE,40,8.0,8.0,90,0.00,,,0.00,meteohub,2013-02-09 12:53:00,
2013-02-09 07:58:00,55.8,52.9,30.18,NE,39,2.0,9.0,90,0.00,,,0.00,meteohub,2013-02-09 12:58:00,
2013-02-09 08:03:00,55.9,53.1,30.18,NE,40,1.0,10.0,90,0.00,,,0.00,meteohub,2013-02-09 13:03:00,
2013-02-09 08:08:00,56.1,53.2,30.18,NNE,23,2.0,10.0,90,0.00,,,0.00,meteohub,2013-02-09 13:08:00,
2013-02-09 08:13:00,56.5,53.2,30.18,NNE,32,0.0,7.0,89,0.00,,,0.00,meteohub,2013-02-09 13:13:00,
2013-02-09 08:18:00,56.7,53.4,30.19,NNE,32,1.0,7.0,89,0.00,,,0.00,meteohub,2013-02-09 13:18:00,
2013-02-09 08:23:00,56.8,53.2,30.19,NE,38,6.0,10.0,88,0.00,,,0.00,meteohub,2013-02-09 13:23:00,
2013-02-09 08:28:00,57.0,53.4,30.19,NNE,16,5.0,10.0,88,0.00,,,0.00,meteohub,2013-02-09 13:28:00,
2013-02-09 08:34:00,57.4,53.6,30.19,NE,38,7.0,10.0,87,0.00,,,0.00,meteohub,2013-02-09 13:34:00,
2013-02-09 08:39:00,57.6,53.8,30.19,NE,42,0.0,9.0,87,0.00,,,0.00,meteohub,2013-02-09 13:39:00,
2013-02-09 08:44:00,57.9,53.8,30.20,NNE,24,6.0,9.0,86,0.00,,,0.00,meteohub,2013-02-09 13:44:00,
2013-02-09 08:49:00,57.9,53.4,30.19,NE,46,1.0,9.0,85,0.00,,,0.00,meteohub,2013-02-09 13:49:00,
2013-02-09 08:54:00,58.3,53.8,30.19,NNE,14,1.0,8.0,85,0.00,,,0.00,meteohub,2013-02-09 13:54:00,
2013-02-09 08:59:00,58.5,54.0,30.19,NE,42,2.0,10.0,85,0.00,,,0.00,meteohub,2013-02-09 13:59:00,
2013-02-09 09:04:00,58.6,53.8,30.20,NE,34,6.0,11.0,84,0.00,,,0.00,meteohub,2013-02-09 14:04:00,
2013-02-09 09:09:00,59.2,54.7,30.20,NE,36,1.0,11.0,85,0.00,,,0.00,meteohub,2013-02-09 14:09:00,
2013-02-09 09:14:00,59.4,54.5,30.20,NNE,17,10.0,11.0,84,0.00,,,0.00,meteohub,2013-02-09 14:14:00,
2013-02-09 09:19:00,59.5,54.3,30.20,NE,37,5.0,10.0,83,0.00,,,0.00,meteohub,2013-02-09 14:19:00,
2013-02-09 09:25:00,59.7,54.5,30.20,NNE,30,5.0,10.0,83,0.00,,,0.00,meteohub,2013-02-09 14:25:00,
2013-02-09 09:30:00,60.1,54.9,30.21,NE,42,6.0,10.0,83,0.00,,,0.00,meteohub,2013-02-09 14:30:00,
2013-02-09 09:35:00,60.3,54.7,30.20,NNE,17,1.0,10.0,82,0.00,,,0.00,meteohub,2013-02-09 14:35:00,
2013-02-09 09:40:00,60.4,54.9,30.21,NE,48,2.0,10.0,82,0.00,,,0.00,meteohub,2013-02-09 14:40:00,
2013-02-09 09:45:00,60.8,54.9,30.20,NNE,33,0.0,10.0,81,0.00,,,0.00,meteohub,2013-02-09 14:45:00,
2013-02-09 09:50:00,61.2,55.2,30.20,NNE,30,1.0,10.0,81,0.00,,,0.00,meteohub,2013-02-09 14:50:00,
2013-02-09 09:55:00,61.5,55.6,30.20,NNE,30,1.0,9.0,81,0.00,,,0.00,meteohub,2013-02-09 14:55:00,
2013-02-09 10:01:00,62.1,55.8,30.21,NE,34,1.0,7.0,80,0.00,,,0.00,meteohub,2013-02-09 15:01:00,
2013-02-09 10:06:00,62.4,55.8,30.21,NE,41,2.0,7.0,79,0.00,,,0.00,meteohub,2013-02-09 15:06:00,
2013-02-09 10:11:00,63.1,56.5,30.21,NE,37,3.0,7.0,79,0.00,,,0.00,meteohub,2013-02-09 15:11:00,
2013-02-09 10:16:00,63.9,56.5,30.21,NE,38,0.0,7.0,77,0.00,,,0.00,meteohub,2013-02-09 15:16:00,
2013-02-09 10:21:00,64.6,56.5,30.21,NE,38,5.0,7.0,75,0.00,,,0.00,meteohub,2013-02-09 15:21:00,
2013-02-09 10:26:00,64.9,56.5,30.21,NE,47,0.0,6.0,74,0.00,,,0.00,meteohub,2013-02-09 15:26:00,
2013-02-09 10:31:00,65.3,56.5,30.22,NE,52,4.0,6.0,73,0.00,,,0.00,meteohub,2013-02-09 15:31:00,
2013-02-09 10:37:00,65.1,55.0,30.21,NE,40,0.0,6.0,70,0.00,,,0.00,meteohub,2013-02-09 15:37:00,
2013-02-09 10:42:00,65.5,56.3,30.21,NE,40,3.0,9.0,72,0.00,,,0.00,meteohub,2013-02-09 15:42:00,
2013-02-09 10:47:00,65.8,56.1,30.21,NE,44,5.0,9.0,71,0.00,,,0.00,meteohub,2013-02-09 15:47:00,
2013-02-09 10:52:00,66.2,56.1,30.21,ENE,57,4.0,7.0,70,0.00,,,0.00,meteohub,2013-02-09 15:52:00,
2013-02-09 10:57:00,66.6,56.5,30.21,ENE,57,2.0,8.0,70,0.00,,,0.00,meteohub,2013-02-09 15:57:00,
2013-02-09 11:02:00,66.7,55.8,30.21,ENE,58,2.0,8.0,68,0.00,,,0.00,meteohub,2013-02-09 16:02:00,
2013-02-09 11:07:00,67.3,56.3,30.21,ENE,57,3.0,7.0,68,0.00,,,0.00,meteohub,2013-02-09 16:07:00,
2013-02-09 11:12:00,67.8,56.5,30.20,NE,50,0.0,8.0,67,0.00,,,0.00,meteohub,2013-02-09 16:12:00,
2013-02-09 11:17:00,68.2,56.3,30.20,NE,38,0.0,8.0,66,0.00,,,0.00,meteohub,2013-02-09 16:17:00,
2013-02-09 11:22:00,68.7,56.8,30.21,NE,38,0.0,8.0,66,0.00,,,0.00,meteohub,2013-02-09 16:22:00,
2013-02-09 11:27:00,68.5,55.9,30.20,NNE,26,2.0,8.0,64,0.00,,,0.00,meteohub,2013-02-09 16:27:00,
2013-02-09 11:32:00,68.2,55.0,30.20,NE,40,2.0,7.0,63,0.00,,,0.00,meteohub,2013-02-09 16:32:00,
2013-02-09 11:37:00,68.5,55.9,30.20,NE,40,0.0,7.0,64,0.00,,,0.00,meteohub,2013-02-09 16:37:00,
2013-02-09 11:42:00,69.3,56.5,30.20,ENE,58,5.0,7.0,64,0.00,,,0.00,meteohub,2013-02-09 16:42:00,
2013-02-09 11:47:00,70.2,56.5,30.20,ENE,57,0.0,8.0,62,0.00,,,0.00,meteohub,2013-02-09 16:47:00,
2013-02-09 11:52:00,70.2,56.1,30.19,NE,38,2.0,8.0,61,0.00,,,0.00,meteohub,2013-02-09 16:52:00,
2013-02-09 11:57:00,70.2,55.6,30.19,NNE,30,2.0,8.0,60,0.00,,,0.00,meteohub,2013-02-09 16:57:00,
2013-02-09 12:02:00,70.7,56.1,30.19,NE,38,1.0,7.0,60,0.00,,,0.00,meteohub,2013-02-09 17:02:00,
2013-02-09 12:08:00,71.1,56.5,30.19,NE,46,3.0,7.0,60,0.00,,,0.00,meteohub,2013-02-09 17:08:00,
2013-02-09 12:13:00,71.6,56.1,30.19,NNE,31,4.0,7.0,58,0.00,,,0.00,meteohub,2013-02-09 17:13:00,
2013-02-09 12:18:00,71.1,55.6,30.18,NE,40,1.0,7.0,58,0.00,,,0.00,meteohub,2013-02-09 17:18:00,
2013-02-09 12:23:00,71.8,56.7,30.18,NE,39,0.0,8.0,59,0.00,,,0.00,meteohub,2013-02-09 17:23:00,
2013-02-09 12:28:00,72.9,56.7,30.18,NE,44,0.0,8.0,57,0.00,,,0.00,meteohub,2013-02-09 17:28:00,
2013-02-09 12:33:00,73.8,57.0,30.18,NE,53,1.0,8.0,56,0.00,,,0.00,meteohub,2013-02-09 17:33:00,
2013-02-09 12:38:00,74.5,56.3,30.18,NE,51,2.0,8.0,53,0.00,,,0.00,meteohub,2013-02-09 17:38:00,
2013-02-09 12:44:00,74.7,56.5,30.18,NE,55,1.0,7.0,53,0.00,,,0.00,meteohub,2013-02-09 17:44:00,
2013-02-09 12:49:00,74.8,56.1,30.18,NE,55,0.0,7.0,52,0.00,,,0.00,meteohub,2013-02-09 17:49:00,
2013-02-09 12:54:00,75.4,56.5,30.17,NE,49,0.0,7.0,52,0.00,,,0.00,meteohub,2013-02-09 17:54:00,
2013-02-09 13:00:00,76.3,56.8,30.17,NE,49,1.0,7.0,51,0.00,,,0.00,meteohub,2013-02-09 18:00:00,
2013-02-09 13:05:00,76.6,56.7,30.16,NE,55,2.0,7.0,50,0.00,,,0.00,meteohub,2013-02-09 18:05:00,
2013-02-09 13:11:00,77.0,57.0,30.16,NE,55,1.0,5.0,50,0.00,,,0.00,meteohub,2013-02-09 18:11:00,
2013-02-09 13:16:00,77.2,57.0,30.16,ENE,60,0.0,5.0,50,0.00,,,0.00,meteohub,2013-02-09 18:16:00,
2013-02-09 13:21:00,77.4,56.1,30.16,ENE,63,0.0,4.0,48,0.00,,,0.00,meteohub,2013-02-09 18:21:00,
2013-02-09 13:26:00,77.7,56.5,30.16,ENE,63,0.0,5.0,48,0.00,,,0.00,meteohub,2013-02-09 18:26:00,
2013-02-09 13:31:00,78.3,57.0,30.16,ENE,63,0.0,5.0,48,0.00,,,0.00,meteohub,2013-02-09 18:31:00,
2013-02-09 13:36:00,78.1,56.3,30.16,ENE,63,0.0,5.0,47,0.00,,,0.00,meteohub,2013-02-09 18:36:00,
2013-02-09 13:41:00,78.3,55.8,30.15,ENE,63,0.0,4.0,46,0.00,,,0.00,meteohub,2013-02-09 18:41:00,
2013-02-09 13:46:00,78.3,58.1,30.15,ENE,64,0.0,4.0,50,0.00,,,0.00,meteohub,2013-02-09 18:46:00,
2013-02-09 13:51:00,76.1,58.3,30.15,ENE,64,1.0,4.0,54,0.00,,,0.00,meteohub,2013-02-09 18:51:00,
2013-02-09 13:57:00,76.1,58.3,30.15,ENE,66,4.0,4.0,54,0.00,,,0.00,meteohub,2013-02-09 18:57:00,
2013-02-09 14:02:00,75.6,56.7,30.15,East,91,5.0,7.0,52,0.00,,,0.00,meteohub,2013-02-09 19:02:00,
2013-02-09 14:07:00,75.4,55.9,30.15,East,86,3.0,10.0,51,0.00,,,0.00,meteohub,2013-02-09 19:07:00,
2013-02-09 14:12:00,74.8,58.6,30.14,East,101,3.0,10.0,57,0.00,,,0.00,meteohub,2013-02-09 19:12:00,
2013-02-09 14:17:00,73.8,56.1,30.14,East,94,2.0,10.0,54,0.00,,,0.00,meteohub,2013-02-09 19:17:00,
2013-02-09 14:22:00,74.1,59.4,30.14,East,95,3.0,10.0,60,0.00,,,0.00,meteohub,2013-02-09 19:22:00,
2013-02-09 14:27:00,73.4,58.6,30.14,East,99,2.0,7.0,60,0.00,,,0.00,meteohub,2013-02-09 19:27:00,
2013-02-09 14:32:00,72.7,57.0,30.14,East,99,2.0,5.0,58,0.00,,,0.00,meteohub,2013-02-09 19:32:00,
2013-02-09 14:37:00,72.0,56.8,30.14,East,99,3.0,5.0,59,0.00,,,0.00,meteohub,2013-02-09 19:37:00,
2013-02-09 14:42:00,71.6,56.1,30.14,East,99,5.0,5.0,58,0.00,,,0.00,meteohub,2013-02-09 19:42:00,
2013-02-09 14:47:00,71.6,57.0,30.14,East,99,5.0,5.0,60,0.00,,,0.00,meteohub,2013-02-09 19:47:00,
2013-02-09 14:52:00,71.4,56.3,30.14,East,100,2.0,5.0,59,0.00,,,0.00,meteohub,2013-02-09 19:52:00,
2013-02-09 14:57:00,71.8,56.7,30.14,East,100,5.0,6.0,59,0.00,,,0.00,meteohub,2013-02-09 19:57:00,
2013-02-09 15:02:00,72.0,56.3,30.14,East,100,3.0,6.0,58,0.00,,,0.00,meteohub,2013-02-09 20:02:00,
2013-02-09 15:07:00,72.0,56.8,30.14,East,100,2.0,6.0,59,0.00,,,0.00,meteohub,2013-02-09 20:07:00,
2013-02-09 15:12:00,72.3,55.8,30.13,East,100,2.0,5.0,56,0.00,,,0.00,meteohub,2013-02-09 20:12:00,
2013-02-09 15:17:00,72.7,55.0,30.13,East,100,1.0,3.0,54,0.00,,,0.00,meteohub,2013-02-09 20:17:00,
2013-02-09 15:22:00,73.6,54.3,30.13,East,100,0.0,3.0,51,0.00,,,0.00,meteohub,2013-02-09 20:22:00,
2013-02-09 15:27:00,74.1,54.3,30.13,East,100,0.0,3.0,50,0.00,,,0.00,meteohub,2013-02-09 20:27:00,
2013-02-09 15:32:00,74.8,54.3,30.13,East,100,0.0,3.0,49,0.00,,,0.00,meteohub,2013-02-09 20:32:00,
2013-02-09 15:37:00,75.7,55.2,30.13,East,100,0.0,2.0,49,0.00,,,0.00,meteohub,2013-02-09 20:37:00,
2013-02-09 15:42:00,76.1,55.0,30.13,East,100,0.0,3.0,48,0.00,,,0.00,meteohub,2013-02-09 20:42:00,
2013-02-09 15:47:00,75.9,56.5,30.13,East,100,1.0,3.0,51,0.00,,,0.00,meteohub,2013-02-09 20:47:00,
2013-02-09 15:52:00,75.2,55.2,30.13,East,100,1.0,3.0,50,0.00,,,0.00,meteohub,2013-02-09 20:52:00,
2013-02-09 15:57:00,75.2,54.7,30.13,East,100,0.0,3.0,49,0.00,,,0.00,meteohub,2013-02-09 20:57:00,
2013-02-09 16:02:00,75.7,55.8,30.13,East,100,1.0,3.0,50,0.00,,,0.00,meteohub,2013-02-09 21:02:00,
2013-02-09 16:07:00,75.6,55.0,30.13,East,100,0.0,5.0,49,0.00,,,0.00,meteohub,2013-02-09 21:07:00,
2013-02-09 16:12:00,75.9,55.9,30.13,East,100,1.0,5.0,50,0.00,,,0.00,meteohub,2013-02-09 21:12:00,
2013-02-09 16:17:00,75.6,55.0,30.13,East,100,2.0,5.0,49,0.00,,,0.00,meteohub,2013-02-09 21:17:00,
2013-02-09 16:22:00,75.2,55.2,30.13,East,100,3.0,5.0,50,0.00,,,0.00,meteohub,2013-02-09 21:22:00,
2013-02-09 16:27:00,74.5,55.8,30.13,East,100,0.0,5.0,52,0.00,,,0.00,meteohub,2013-02-09 21:27:00,
2013-02-09 16:32:00,74.7,55.4,30.13,East,100,0.0,5.0,51,0.00,,,0.00,meteohub,2013-02-09 21:32:00,
2013-02-09 16:37:00,75.0,54.5,30.13,East,100,0.0,5.0,49,0.00,,,0.00,meteohub,2013-02-09 21:37:00,
2013-02-09 16:42:00,75.9,54.3,30.13,East,100,0.0,3.0,47,0.00,,,0.00,meteohub,2013-02-09 21:42:00,
2013-02-09 16:47:00,76.5,55.4,30.13,East,100,0.0,1.0,48,0.00,,,0.00,meteohub,2013-02-09 21:47:00,
2013-02-09 16:52:00,76.3,54.0,30.13,East,100,0.0,0.0,46,0.00,,,0.00,meteohub,2013-02-09 21:52:00,
2013-02-09 16:57:00,76.8,54.5,30.13,East,100,0.0,0.0,46,0.00,,,0.00,meteohub,2013-02-09 21:57:00,
2013-02-09 17:02:00,77.2,58.3,30.13,East,100,1.0,2.0,52,0.00,,,0.00,meteohub,2013-02-09 22:02:00,
2013-02-09 17:07:00,76.8,57.9,30.13,East,100,2.0,3.0,52,0.00,,,0.00,meteohub,2013-02-09 22:07:00,
2013-02-09 17:12:00,76.3,58.5,30.13,East,100,1.0,3.0,54,0.00,,,0.00,meteohub,2013-02-09 22:12:00,
2013-02-09 17:17:00,75.4,58.6,30.13,East,100,1.0,3.0,56,0.00,,,0.00,meteohub,2013-02-09 22:17:00,
2013-02-09 17:22:00,74.7,58.8,30.13,East,99,2.0,3.0,58,0.00,,,0.00,meteohub,2013-02-09 22:22:00,
2013-02-09 17:27:00,74.1,58.8,30.13,East,99,0.0,5.0,59,0.00,,,0.00,meteohub,2013-02-09 22:27:00,
2013-02-09 17:33:00,74.1,59.4,30.13,East,98,2.0,5.0,60,0.00,,,0.00,meteohub,2013-02-09 22:33:00,
2013-02-09 17:38:00,73.6,59.7,30.13,East,98,0.0,5.0,62,0.00,,,0.00,meteohub,2013-02-09 22:38:00,
2013-02-09 17:43:00,72.9,59.5,30.13,East,97,1.0,5.0,63,0.00,,,0.00,meteohub,2013-02-09 22:43:00,
2013-02-09 17:48:00,72.3,59.5,30.13,East,84,1.0,5.0,64,0.00,,,0.00,meteohub,2013-02-09 22:48:00,
2013-02-09 17:53:00,72.0,59.5,30.13,East,84,0.0,5.0,65,0.00,,,0.00,meteohub,2013-02-09 22:53:00,
2013-02-09 17:58:00,71.8,59.7,30.13,East,84,2.0,5.0,66,0.00,,,0.00,meteohub,2013-02-09 22:58:00,
2013-02-09 18:03:00,71.4,59.5,30.13,East,84,0.0,5.0,66,0.00,,,0.00,meteohub,2013-02-09 23:03:00,
2013-02-09 18:08:00,71.1,59.9,30.13,East,84,0.0,5.0,68,0.00,,,0.00,meteohub,2013-02-09 23:08:00,
2013-02-09 18:13:00,70.3,59.4,30.12,East,84,2.0,3.0,68,0.00,,,0.00,meteohub,2013-02-09 23:13:00,
2013-02-09 18:19:00,70.0,59.7,30.13,East,84,0.0,3.0,70,0.00,,,0.00,meteohub,2013-02-09 23:19:00,
2013-02-09 18:24:00,69.6,59.7,30.13,East,84,0.0,3.0,71,0.00,,,0.00,meteohub,2013-02-09 23:24:00,
2013-02-09 18:29:00,69.3,59.5,30.13,East,84,0.0,3.0,71,0.00,,,0.00,meteohub,2013-02-09 23:29:00,
2013-02-09 18:34:00,69.1,59.7,30.13,East,84,0.0,3.0,72,0.00,,,0.00,meteohub,2013-02-09 23:34:00,
2013-02-09 18:39:00,68.7,59.4,30.13,East,84,0.0,3.0,72,0.00,,,0.00,meteohub,2013-02-09 23:39:00,
2013-02-09 18:44:00,68.5,59.5,30.13,East,84,0.0,2.0,73,0.00,,,0.00,meteohub,2013-02-09 23:44:00,
2013-02-09 18:49:00,68.4,59.4,30.13,East,84,0.0,2.0,73,0.00,,,0.00,meteohub,2013-02-09 23:49:00,
2013-02-09 18:54:00,68.2,58.8,30.13,East,84,0.0,2.0,72,0.00,,,0.00,meteohub,2013-02-09 23:54:00,
2013-02-09 18:59:00,67.8,58.5,30.13,East,84,0.0,2.0,72,0.00,,,0.00,meteohub,2013-02-09 23:59:00,
2013-02-09 19:04:00,67.6,58.3,30.13,East,84,0.0,2.0,72,0.00,,,0.00,meteohub,2013-02-10 00:04:00,
2013-02-09 19:09:00,67.5,58.1,30.14,East,84,0.0,2.0,72,0.00,,,0.00,meteohub,2013-02-10 00:09:00,
2013-02-09 19:15:00,67.3,57.9,30.14,East,84,0.0,2.0,72,0.00,,,0.00,meteohub,2013-02-10 00:15:00,
2013-02-09 19:20:00,67.1,57.7,30.14,East,84,0.0,2.0,72,0.00,,,0.00,meteohub,2013-02-10 00:20:00,
2013-02-09 19:25:00,66.7,57.7,30.14,East,84,0.0,1.0,73,0.00,,,0.00,meteohub,2013-02-10 00:25:00,
2013-02-09 19:30:00,66.6,57.6,30.14,East,84,0.0,1.0,73,0.00,,,0.00,meteohub,2013-02-10 00:30:00,
2013-02-09 19:35:00,66.4,57.4,30.15,East,84,0.0,1.0,73,0.00,,,0.00,meteohub,2013-02-10 00:35:00,
2013-02-09 19:40:00,66.2,57.7,30.15,East,84,0.0,1.0,74,0.00,,,0.00,meteohub,2013-02-10 00:40:00,
2013-02-09 19:45:00,66.0,57.6,30.15,East,84,0.0,1.0,74,0.00,,,0.00,meteohub,2013-02-10 00:45:00,
2013-02-09 19:50:00,65.8,57.7,30.15,East,84,0.0,1.0,75,0.00,,,0.00,meteohub,2013-02-10 00:50:00,
2013-02-09 19:55:00,65.7,57.6,30.15,East,84,0.0,1.0,75,0.00,,,0.00,meteohub,2013-02-10 00:55:00,
2013-02-09 20:00:00,65.5,57.4,30.15,East,84,0.0,1.0,75,0.00,,,0.00,meteohub,2013-02-10 01:00:00,
2013-02-09 20:06:00,65.3,57.2,30.15,East,84,0.0,1.0,75,0.00,,,0.00,meteohub,2013-02-10 01:06:00,
2013-02-09 20:11:00,65.1,57.0,30.15,East,84,0.0,1.0,75,0.00,,,0.00,meteohub,2013-02-10 01:11:00,
2013-02-09 20:16:00,65.1,57.0,30.16,East,84,0.0,3.0,75,0.00,,,0.00,meteohub,2013-02-10 01:16:00,
2013-02-09 20:21:00,65.1,56.7,30.16,East,84,0.0,3.0,74,0.00,,,0.00,meteohub,2013-02-10 01:21:00,
2013-02-09 20:26:00,65.3,56.8,30.16,East,84,1.0,1.0,74,0.00,,,0.00,meteohub,2013-02-10 01:26:00,
2013-02-09 20:31:00,65.7,56.8,30.16,East,84,0.0,5.0,73,0.00,,,0.00,meteohub,2013-02-10 01:31:00,
2013-02-09 20:36:00,65.8,57.4,30.16,East,84,0.0,6.0,74,0.00,,,0.00,meteohub,2013-02-10 01:36:00,
2013-02-09 20:41:00,66.0,57.2,30.17,East,84,3.0,6.0,73,0.00,,,0.00,meteohub,2013-02-10 01:41:00,
2013-02-09 20:46:00,66.2,57.2,30.17,ENE,74,0.0,8.0,73,0.00,,,0.00,meteohub,2013-02-10 01:46:00,
2013-02-09 20:51:00,66.4,57.4,30.17,ENE,70,4.0,8.0,73,0.00,,,0.00,meteohub,2013-02-10 01:51:00,
2013-02-09 20:56:00,66.4,57.0,30.17,ENE,68,5.0,8.0,72,0.00,,,0.00,meteohub,2013-02-10 01:56:00,
2013-02-09 21:01:00,66.6,57.2,30.18,ENE,58,1.0,9.0,72,0.00,,,0.00,meteohub,2013-02-10 02:01:00,
2013-02-09 21:06:00,66.7,57.0,30.18,ENE,57,0.0,10.0,71,0.00,,,0.00,meteohub,2013-02-10 02:06:00,
2013-02-09 21:12:00,66.7,57.0,30.18,ENE,61,4.0,10.0,71,0.00,,,0.00,meteohub,2013-02-10 02:12:00,
2013-02-09 21:17:00,66.7,57.0,30.18,ENE,61,1.0,11.0,71,0.00,,,0.00,meteohub,2013-02-10 02:17:00,
2013-02-09 21:22:00,66.7,57.0,30.18,ENE,72,2.0,11.0,71,0.00,,,0.00,meteohub,2013-02-10 02:22:00,
2013-02-09 21:27:00,66.6,56.8,30.18,ENE,57,5.0,14.0,71,0.00,,,0.00,meteohub,2013-02-10 02:27:00,
2013-02-09 21:32:00,66.6,57.2,30.18,East,79,8.0,14.0,72,0.00,,,0.00,meteohub,2013-02-10 02:32:00,
2013-02-09 21:37:00,66.4,57.4,30.18,ENE,62,1.0,14.0,73,0.00,,,0.00,meteohub,2013-02-10 02:37:00,
2013-02-09 21:42:00,66.4,57.9,30.19,NE,48,6.0,12.0,74,0.00,,,0.00,meteohub,2013-02-10 02:42:00,
2013-02-09 21:47:00,66.0,57.6,30.19,ENE,59,1.0,11.0,74,0.00,,,0.00,meteohub,2013-02-10 02:47:00,
2013-02-09 21:52:00,66.0,57.2,30.19,NE,34,2.0,11.0,73,0.00,,,0.00,meteohub,2013-02-10 02:52:00,
2013-02-09 21:57:00,65.8,57.0,30.19,East,80,0.0,11.0,73,0.00,,,0.00,meteohub,2013-02-10 02:57:00,
2013-02-09 22:02:00,65.8,57.0,30.19,ENE,58,3.0,11.0,73,0.00,,,0.00,meteohub,2013-02-10 03:02:00,
2013-02-09 22:07:00,65.7,56.8,30.19,ENE,63,4.0,13.0,73,0.00,,,0.00,meteohub,2013-02-10 03:07:00,
2013-02-09 22:12:00,65.7,57.2,30.19,ENE,67,2.0,13.0,74,0.00,,,0.00,meteohub,2013-02-10 03:12:00,
2013-02-09 22:18:00,65.5,57.0,30.19,ENE,63,5.0,10.0,74,0.00,,,0.00,meteohub,2013-02-10 03:18:00,
2013-02-09 22:23:00,65.3,56.8,30.19,ENE,65,1.0,11.0,74,0.00,,,0.00,meteohub,2013-02-10 03:23:00,
2013-02-09 22:28:00,65.1,56.7,30.20,NE,53,1.0,11.0,74,0.00,,,0.00,meteohub,2013-02-10 03:28:00,
2013-02-09 22:33:00,65.1,56.7,30.20,ENE,57,0.0,11.0,74,0.00,,,0.00,meteohub,2013-02-10 03:33:00,
2013-02-09 22:38:00,64.9,56.5,30.20,ENE,60,0.0,11.0,74,0.00,,,0.00,meteohub,2013-02-10 03:38:00,
2013-02-09 22:43:00,64.8,56.7,30.20,ENE,62,0.0,11.0,75,0.00,,,0.00,meteohub,2013-02-10 03:43:00,
2013-02-09 22:48:00,64.8,56.7,30.20,ENE,67,0.0,9.0,75,0.00,,,0.00,meteohub,2013-02-10 03:48:00,
2013-02-09 22:53:00,64.6,56.8,30.20,NE,55,3.0,10.0,76,0.00,,,0.00,meteohub,2013-02-10 03:53:00,
2013-02-09 22:59:00,64.2,56.1,30.20,NE,52,2.0,10.0,75,0.00,,,0.00,meteohub,2013-02-10 03:59:00,
2013-02-09 23:04:00,64.2,56.5,30.20,ENE,67,3.0,10.0,76,0.00,,,0.00,meteohub,2013-02-10 04:04:00,
2013-02-09 23:09:00,64.0,56.3,30.20,NE,40,2.0,10.0,76,0.00,,,0.00,meteohub,2013-02-10 04:09:00,
2013-02-09 23:14:00,63.9,56.5,30.20,NE,56,1.0,14.0,77,0.00,,,0.00,meteohub,2013-02-10 04:14:00,
2013-02-09 23:19:00,63.7,56.3,30.20,ENE,59,4.0,14.0,77,0.00,,,0.00,meteohub,2013-02-10 04:19:00,
2013-02-09 23:24:00,63.5,56.1,30.20,ENE,59,1.0,14.0,77,0.00,,,0.00,meteohub,2013-02-10 04:24:00,
2013-02-09 23:29:00,63.3,55.9,30.20,ENE,62,5.0,12.0,77,0.00,,,0.00,meteohub,2013-02-10 04:29:00,
2013-02-09 23:34:00,63.3,56.3,30.20,ENE,59,3.0,12.0,78,0.00,,,0.00,meteohub,2013-02-10 04:34:00,
2013-02-09 23:39:00,63.1,56.1,30.20,ENE,58,2.0,11.0,78,0.00,,,0.00,meteohub,2013-02-10 04:39:00,
2013-02-09 23:44:00,63.1,56.1,30.20,NE,51,1.0,11.0,78,0.00,,,0.00,meteohub,2013-02-10 04:44:00,
2013-02-09 23:49:00,63.0,55.9,30.20,ENE,62,4.0,10.0,78,0.00,,,0.00,meteohub,2013-02-10 04:49:00,
2013-02-09 23:55:00,63.0,55.9,30.20,ENE,76,3.0,10.0,78,0.00,,,0.00,meteohub,2013-02-10 04:55:00,